University Park, Illinois
Current Conditions -  °F | °C
As of 9:55 PM on Friday 24 Oct 2014 (Local Time) from KIGQ Reporting Station
Broken Clouds Broken Clouds  
Wind Chill: 54°   Ceiling: 7000
Heat Index: 54°   Visibility: 10mi
Dew Point: 47°   Wind: 6mph
Humidity: 77%   Direction: 210°SSW
Pressure: 29.96"   Gusts: NA
Location:  41.4594°N, 87.6908°W
Report Text: KIGQ 250255Z AUTO 21005KT 10SM BKN070 BKN095 12/08 A2996 RMK AO2 T01210081
Loading
Personal Weather Stations






























Interactive Weather Map
Tropical Storm Tracking
New forecast layout! Learn more

10-Day Weather Forecast

Advertisements
Track Severe Weather on mobile